Time;durP1;ratioP1;P1;durP2;ratioP2;P2;SDS_P1;SDS_P2;PMS_P1;PMS_P2;Temp;Humidity;BMP_temperature;BMP_pressure;BME280_temperature;BME280_humidity;BME280_pressure;Samples;Min_cycle;Max_cycle;Signal;HPM_P1;HPM_P2
2022/02/21 00:00:27;;;;;;;6.05;1.50;;;;;;;10.09;57.98;98010.91;10387130;28;20483;-68
2022/02/21 00:05:29;;;;;;;6.00;1.67;;;;;;;10.09;58.14;97987.41;10387653;28;20401;-67
2022/02/21 00:10:31;;;;;;;5.05;1.38;;;;;;;10.08;58.86;97999.63;10388884;28;20063;-66
2022/02/21 00:15:33;;;;;;;4.30;1.23;;;;;;;9.82;60.89;97990.66;10388025;28;20774;-66
2022/02/21 00:20:34;;;;;;;6.00;1.77;;;;;;;9.79;61.92;97987.47;10387117;28;20512;-67
2022/02/21 00:25:36;;;;;;;4.63;1.50;;;;;;;9.48;63.80;97990.06;10388166;28;20064;-67
2022/02/21 00:30:38;;;;;;;6.97;1.90;;;;;;;9.65;63.07;98010.34;10386260;28;20083;-66
2022/02/21 00:35:39;;;;;;;6.57;1.70;;;;;;;9.38;64.85;98012.69;10387448;28;20045;-67
2022/02/21 00:40:41;;;;;;;5.15;1.40;;;;;;;9.37;65.32;98026.72;10387756;28;20045;-66
2022/02/21 00:45:43;;;;;;;7.63;1.70;;;;;;;9.28;66.19;98052.75;10385101;28;20389;-66
2022/02/21 00:50:45;;;;;;;7.07;1.65;;;;;;;9.05;67.35;98142.50;10386752;28;20496;-66
2022/02/21 00:55:47;;;;;;;4.15;1.25;;;;;;;8.58;65.63;98104.66;10385777;28;20068;-66
2022/02/21 01:00:49;;;;;;;4.30;1.35;;;;;;;8.04;64.97;98138.44;10385380;28;20053;-66
2022/02/21 01:05:51;;;;;;;4.32;1.30;;;;;;;8.19;63.08;98149.47;10386322;28;20053;-66
2022/02/21 01:10:52;;;;;;;4.55;1.27;;;;;;;7.95;63.19;98179.03;10385765;28;20144;-67
2022/02/21 01:15:54;;;;;;;4.70;1.10;;;;;;;7.29;63.62;98238.72;10385982;28;20077;-66
2022/02/21 01:20:57;;;;;;;3.45;0.90;;;;;;;6.89;64.25;98229.53;10386247;28;20128;-66
2022/02/21 01:25:58;;;;;;;3.67;0.98;;;;;;;6.80;63.48;98241.41;10386152;28;20572;-66
2022/02/21 01:31:00;;;;;;;3.65;1.20;;;;;;;6.76;62.61;98272.91;10384801;28;20075;-66
2022/02/21 01:36:02;;;;;;;3.35;1.20;;;;;;;6.81;61.95;98255.25;10384725;28;20053;-65
2022/02/21 01:41:04;;;;;;;4.40;1.30;;;;;;;6.80;61.44;98257.00;10384925;28;20775;-65
2022/02/21 01:46:06;;;;;;;3.10;1.20;;;;;;;6.71;60.75;98249.03;10384207;28;20057;-66
2022/02/21 01:51:08;;;;;;;3.78;1.20;;;;;;;6.67;60.32;98230.25;10384483;28;20053;-66
2022/02/21 01:56:10;;;;;;;4.50;1.40;;;;;;;6.51;59.58;98239.22;10384416;28;20049;-66
2022/02/21 02:01:12;;;;;;;6.00;1.45;;;;;;;6.49;59.96;98241.09;10383941;28;20215;-67
2022/02/21 02:06:15;;;;;;;4.68;1.20;;;;;;;6.48;59.34;98262.81;10383689;28;20056;-65
2022/02/21 02:11:17;;;;;;;8.93;1.60;;;;;;;6.54;58.16;98275.34;10383530;28;20057;-66
2022/02/21 02:16:19;;;;;;;5.57;1.83;;;;;;;6.50;57.82;98300.72;10384133;28;20116;-66
2022/02/21 02:21:23;;;;;;;5.65;1.70;;;;;;;6.45;57.25;98289.81;10383780;28;20064;-66
2022/02/21 02:26:24;;;;;;;4.45;1.45;;;;;;;6.46;56.81;98293.25;10379564;28;20160;-66
2022/02/21 02:31:26;;;;;;;4.25;1.20;;;;;;;6.29;56.63;98286.59;10384086;28;20164;-66
2022/02/21 02:36:28;;;;;;;2.95;1.00;;;;;;;6.22;56.35;98306.09;10382470;28;20052;-65
2022/02/21 02:41:30;;;;;;;4.55;1.40;;;;;;;6.15;55.47;98316.06;10382163;28;20053;-66
2022/02/21 02:46:31;;;;;;;4.75;1.17;;;;;;;5.97;54.81;98337.22;10382665;28;20248;-66
2022/02/21 02:51:35;;;;;;;4.70;1.63;;;;;;;5.83;54.48;98355.47;10383656;28;20061;-66
2022/02/21 02:56:41;;;;;;;3.95;1.20;;;;;;;5.78;53.52;98350.56;10375686;28;20391;-66
2022/02/21 03:01:43;;;;;;;4.70;1.67;;;;;;;5.78;53.94;98339.38;10383936;28;20053;-66
2022/02/21 03:06:45;;;;;;;4.45;1.23;;;;;;;5.52;53.67;98341.91;10389093;28;20519;-66
2022/02/21 03:11:47;;;;;;;3.78;1.20;;;;;;;5.30;53.90;98364.94;10390644;28;20051;-66
2022/02/21 03:16:49;;;;;;;6.00;1.80;;;;;;;5.27;53.64;98364.28;10390381;28;20049;-67
2022/02/21 03:21:55;;;;;;;4.90;1.40;;;;;;;5.31;53.72;98371.78;10397780;28;20239;-67
2022/02/21 03:26:57;;;;;;;5.60;1.40;;;;;;;5.30;54.05;98364.94;10397466;28;20053;-66
2022/02/21 03:31:58;;;;;;;5.28;1.70;;;;;;;5.27;54.58;98362.53;10397525;28;20572;-65
2022/02/21 03:37:05;;;;;;;4.68;1.70;;;;;;;5.31;54.67;98340.66;10397466;28;20065;-67
2022/02/21 03:42:07;;;;;;;5.97;1.52;;;;;;;5.22;55.00;98381.91;10396380;28;20075;-67
2022/02/21 03:47:09;;;;;;;5.45;1.67;;;;;;;5.05;54.53;98361.38;10397238;28;20042;-67
2022/02/21 03:52:10;;;;;;;4.68;1.30;;;;;;;5.04;55.49;98360.56;10397158;28;20252;-67
2022/02/21 03:57:12;;;;;;;6.85;1.65;;;;;;;4.94;54.94;98369.00;10397390;28;20046;-66
2022/02/21 04:02:14;;;;;;;6.03;1.77;;;;;;;4.89;54.97;98368.44;10395322;28;20052;-67
2022/02/21 04:07:16;;;;;;;6.72;1.70;;;;;;;4.76;55.48;98396.00;10388764;28;20046;-67
2022/02/21 04:12:17;;;;;;;7.78;1.90;;;;;;;4.71;55.32;98404.06;10384692;28;20045;-66
2022/02/21 04:17:19;;;;;;;10.65;1.73;;;;;;;4.66;55.07;98417.28;10388643;28;20046;-66
2022/02/21 04:22:21;;;;;;;15.20;2.00;;;;;;;4.82;54.97;98419.75;10386876;28;20417;-66
2022/02/21 04:27:22;;;;;;;7.40;1.70;;;;;;;5.01;55.11;98429.84;10387877;28;20544;-66
2022/02/21 04:32:24;;;;;;;7.80;2.08;;;;;;;4.83;55.16;98424.03;10387810;28;20063;-67
2022/02/21 04:37:26;;;;;;;6.57;2.05;;;;;;;4.91;55.66;98436.50;10385761;28;20038;-68
2022/02/21 04:42:28;;;;;;;7.35;2.35;;;;;;;4.88;54.25;98421.16;10386329;28;20650;-67
2022/02/21 04:47:30;;;;;;;5.93;1.65;;;;;;;4.84;53.99;98463.72;10385547;28;20045;-67
2022/02/21 04:52:31;;;;;;;9.32;2.00;;;;;;;4.23;58.37;98500.13;10386642;28;20057;-67
2022/02/21 04:57:34;;;;;;;7.57;1.75;;;;;;;3.75;60.51;98498.47;10388102;28;20053;-67
2022/02/21 05:02:36;;;;;;;8.13;1.70;;;;;;;3.43;61.99;98487.31;10386116;28;20383;-67
2022/02/21 05:07:39;;;;;;;8.63;1.80;;;;;;;3.38;61.60;98491.03;10386747;28;20143;-67
2022/02/21 05:12:41;;;;;;;7.95;1.80;;;;;;;3.48;60.71;98481.84;10386951;28;20063;-67
2022/02/21 05:17:43;;;;;;;11.35;3.63;;;;;;;3.55;60.63;98476.31;10387277;28;20066;-68
2022/02/21 05:22:45;;;;;;;14.68;3.90;;;;;;;3.44;61.11;98481.19;10386838;28;20298;-68
2022/02/21 05:27:47;;;;;;;11.70;2.60;;;;;;;3.44;61.05;98482.94;10386686;28;20334;-67
2022/02/21 05:32:48;;;;;;;9.75;2.22;;;;;;;3.23;61.14;98489.28;10386651;28;20513;-68
2022/02/21 05:37:50;;;;;;;13.35;2.45;;;;;;;3.23;60.35;98491.84;10383729;28;20810;-68
2022/02/21 05:42:52;;;;;;;10.77;2.72;;;;;;;3.30;59.60;98486.28;10379928;28;20111;-68
2022/02/21 05:47:54;;;;;;;12.90;2.80;;;;;;;3.42;58.99;98503.72;10385936;28;20470;-68
2022/02/21 05:52:55;;;;;;;13.50;2.50;;;;;;;3.49;58.28;98494.72;10384319;28;20460;-68
2022/02/21 05:57:58;;;;;;;15.32;2.97;;;;;;;3.61;57.89;98511.31;10385096;28;20417;-67
2022/02/21 06:03:00;;;;;;;16.40;2.90;;;;;;;3.73;57.73;98498.56;10384986;28;20041;-67
2022/02/21 06:08:03;;;;;;;10.35;2.70;;;;;;;3.72;57.20;98506.41;10367977;28;20048;-67
2022/02/21 06:13:04;;;;;;;14.75;3.17;;;;;;;3.80;56.90;98510.22;10385256;28;20142;-67
2022/02/21 06:18:06;;;;;;;13.27;2.65;;;;;;;3.74;56.28;98518.31;10384095;28;20439;-68
2022/02/21 06:23:08;;;;;;;14.38;3.03;;;;;;;3.73;55.75;98505.47;10383749;28;20394;-67
2022/02/21 06:28:11;;;;;;;13.60;2.88;;;;;;;3.90;55.47;98517.50;10384161;28;20497;-69
2022/02/21 06:33:12;;;;;;;22.20;6.20;;;;;;;3.82;55.28;98523.91;10384956;28;20049;-67
2022/02/21 06:38:14;;;;;;;13.20;2.83;;;;;;;3.62;55.26;98533.69;10383289;28;20045;-67
2022/02/21 06:43:16;;;;;;;14.73;3.10;;;;;;;3.74;55.75;98541.59;10382256;28;20046;-67
2022/02/21 06:48:18;;;;;;;16.75;4.63;;;;;;;3.80;55.06;98540.44;10384129;28;20395;-68
2022/02/21 06:53:20;;;;;;;13.35;2.92;;;;;;;3.85;54.67;98547.03;10386386;28;20053;-68
2022/02/21 06:58:22;;;;;;;11.90;2.60;;;;;;;3.92;54.63;98557.91;10392437;28;20053;-68
2022/02/21 07:03:24;;;;;;;16.13;3.13;;;;;;;4.20;54.83;98552.88;10393051;28;20045;-68
2022/02/21 07:08:25;;;;;;;15.52;2.83;;;;;;;4.28;55.13;98571.38;10392457;28;20045;-69
2022/02/21 07:13:29;;;;;;;12.55;2.88;;;;;;;4.08;56.73;98576.84;10390307;28;20748;-69
2022/02/21 07:18:37;;;;;;;16.58;3.65;;;;;;;4.03;57.39;98601.28;10392931;28;20045;-69
2022/02/21 07:23:38;;;;;;;13.85;3.08;;;;;;;3.88;58.55;98617.63;10390022;28;20091;-68
2022/02/21 07:28:40;;;;;;;14.48;2.83;;;;;;;3.65;60.12;98624.81;10390870;28;20133;-68
2022/02/21 07:33:42;;;;;;;10.35;2.63;;;;;;;3.54;60.82;98631.44;10391513;28;20148;-68
2022/02/21 07:38:44;;;;;;;14.82;2.85;;;;;;;3.54;61.35;98652.97;10390211;28;20052;-68
2022/02/21 07:43:46;;;;;;;13.27;2.50;;;;;;;3.34;61.41;98649.72;10391740;28;20052;-68
2022/02/21 07:48:47;;;;;;;13.20;2.70;;;;;;;3.21;62.11;98640.94;10390572;28;20049;-68
2022/02/21 07:53:49;;;;;;;11.50;2.80;;;;;;;3.44;61.46;98644.00;10389460;28;20144;-68
2022/02/21 07:58:58;;;;;;;12.85;2.75;;;;;;;3.60;61.03;98634.56;10390477;28;20486;-68
2022/02/21 08:04:00;;;;;;;13.80;2.58;;;;;;;3.76;60.65;98619.91;10389464;28;20057;-68
2022/02/21 08:09:01;;;;;;;10.85;2.55;;;;;;;4.02;59.58;98615.97;10388932;28;20063;-68
2022/02/21 08:14:04;;;;;;;11.80;2.50;;;;;;;3.97;58.45;98606.78;10386507;28;20075;-68
2022/02/21 08:19:06;;;;;;;13.63;2.35;;;;;;;4.14;57.92;98602.38;10388945;28;20409;-68
2022/02/21 08:24:08;;;;;;;11.85;2.67;;;;;;;4.04;57.27;98600.38;10386583;28;20053;-69
2022/02/21 08:29:10;;;;;;;11.95;2.50;;;;;;;4.45;57.19;98607.53;10389011;28;20187;-68
2022/02/21 08:34:13;;;;;;;14.35;2.90;;;;;;;5.08;55.97;98600.41;10384099;28;20141;-68
2022/02/21 08:39:15;;;;;;;12.43;3.00;;;;;;;5.29;54.64;98604.31;10387863;28;20038;-68
2022/02/21 08:44:17;;;;;;;16.27;3.10;;;;;;;4.92;55.56;98596.22;10388760;28;20068;-68
2022/02/21 08:49:20;;;;;;;9.68;2.40;;;;;;;4.83;55.20;98594.13;10389137;28;20139;-68
2022/02/21 08:54:22;;;;;;;12.95;3.83;;;;;;;5.18;54.73;98595.53;10389864;28;20478;-68
2022/02/21 08:59:23;;;;;;;10.88;2.28;;;;;;;5.26;53.95;98601.09;10388748;28;20048;-63
2022/02/21 09:04:25;;;;;;;7.68;2.17;;;;;;;5.52;53.94;98606.38;10383342;28;20246;-63
2022/02/21 09:09:27;;;;;;;9.45;2.30;;;;;;;5.70;52.90;98594.03;10386532;28;20047;-63
2022/02/21 09:14:29;;;;;;;9.52;2.38;;;;;;;5.63;52.81;98607.50;10377664;28;20477;-62
2022/02/21 09:19:32;;;;;;;9.75;2.50;;;;;;;5.30;52.63;98615.53;10385522;28;20429;-63
2022/02/21 09:24:34;;;;;;;11.40;2.20;;;;;;;5.42;52.95;98609.63;10382725;28;20057;-63
2022/02/21 09:29:36;;;;;;;10.48;2.22;;;;;;;5.57;52.17;98606.09;10383336;28;20485;-63
2022/02/21 09:34:40;;;;;;;13.20;2.40;;;;;;;5.66;51.90;98589.97;10383459;28;20095;-63
2022/02/21 09:39:41;;;;;;;12.10;2.60;;;;;;;5.94;51.55;98566.59;10383305;28;20136;-63
2022/02/21 09:44:46;;;;;;;9.43;2.55;;;;;;;5.63;51.65;98569.44;10384842;28;20413;-63
2022/02/21 09:49:49;;;;;;;12.98;2.72;;;;;;;5.79;50.89;98567.56;10382474;28;20472;-63
2022/02/21 09:54:51;;;;;;;12.25;2.40;;;;;;;5.91;50.42;98560.75;10378167;28;20497;-63
2022/02/21 09:59:53;;;;;;;11.50;2.60;;;;;;;6.02;50.25;98573.91;10382073;28;20458;-62
2022/02/21 10:05:21;;;;;;;10.63;2.55;;;;;;;5.98;49.45;98599.19;10383238;28;20671;-62
2022/02/21 10:10:25;;;;;;;11.55;2.72;;;;;;;5.81;49.98;98599.44;10379030;28;20405;-63
2022/02/21 10:15:28;;;;;;;12.57;2.65;;;;;;;6.05;49.44;98576.31;10381887;28;20041;-63
2022/02/21 10:20:30;;;;;;;11.40;2.50;;;;;;;6.40;49.28;98589.69;10383206;28;20410;-63
2022/02/21 10:25:32;;;;;;;11.63;2.33;;;;;;;6.44;48.35;98593.75;10383463;28;20060;-62
2022/02/21 10:30:34;;;;;;;11.13;2.85;;;;;;;6.49;48.40;98582.13;10382163;28;20045;-63
2022/02/21 10:35:43;;;;;;;13.52;2.90;;;;;;;6.48;46.84;98574.44;10384130;28;20107;-64
2022/02/21 10:40:45;;;;;;;11.05;2.50;;;;;;;6.34;46.48;98589.16;10383901;28;20049;-63
2022/02/21 10:45:48;;;;;;;11.10;2.40;;;;;;;6.29;46.43;98570.41;10382682;28;20782;-63
2022/02/21 10:50:58;;;;;;;11.27;2.65;;;;;;;6.41;45.58;98555.81;10383945;28;20085;-63
2022/02/21 10:56:00;;;;;;;10.33;2.57;;;;;;;6.99;46.07;98539.84;10383549;28;20154;-63
2022/02/21 11:01:07;;;;;;;10.10;2.30;;;;;;;6.99;45.48;98537.22;10382243;28;20056;-62
2022/02/21 11:06:11;;;;;;;10.48;2.30;;;;;;;7.29;45.29;98537.75;10383919;28;20065;-63
2022/02/21 11:11:14;;;;;;;9.32;2.30;;;;;;;7.13;44.86;98537.13;10381480;28;20576;-63
2022/02/21 11:16:16;;;;;;;12.02;2.65;;;;;;;7.13;44.93;98511.13;10383908;28;20262;-63
2022/02/21 11:21:18;;;;;;;7.85;1.88;;;;;;;7.26;44.91;98509.38;10383637;28;20132;-63
2022/02/21 11:26:26;;;;;;;8.00;2.08;;;;;;;7.31;44.31;98496.03;10383089;28;20057;-63
2022/02/21 11:31:32;;;;;;;10.95;3.38;;;;;;;7.37;44.86;98496.44;10383206;28;20414;-63
2022/02/21 11:36:34;;;;;;;9.32;2.40;;;;;;;7.15;45.27;98485.88;10383576;28;20045;-63
2022/02/21 11:41:36;;;;;;;9.70;2.20;;;;;;;7.10;45.64;98454.97;10389193;28;20156;-63
2022/02/21 11:46:38;;;;;;;12.52;2.25;;;;;;;7.40;45.36;98452.03;10390520;28;20046;-62
2022/02/21 11:51:41;;;;;;;9.02;1.98;;;;;;;7.28;45.81;98433.84;10391027;28;20064;-63
2022/02/21 11:56:52;;;;;;;7.50;2.03;;;;;;;7.27;45.49;98413.97;10390100;28;20128;-63
2022/02/21 12:02:07;;;;;;;15.38;5.45;;;;;;;7.37;46.09;98400.22;10389989;28;20140;-63
2022/02/21 12:07:20;;;;;;;10.23;2.22;;;;;;;7.81;44.90;98431.69;10389065;28;20055;-63
2022/02/21 12:12:26;;;;;;;8.38;1.67;;;;;;;7.48;46.14;98410.72;10389349;28;20521;-63
2022/02/21 12:17:28;;;;;;;10.13;1.80;;;;;;;7.60;46.73;98409.81;10387406;28;20061;-63
2022/02/21 12:22:33;;;;;;;8.07;2.20;;;;;;;7.54;47.51;98410.25;10387572;28;20060;-63
2022/02/21 12:28:08;;;;;;;8.13;1.73;;;;;;;7.11;49.53;98402.06;10378355;28;20135;-63
2022/02/21 12:33:11;;;;;;;8.15;1.90;;;;;;;6.87;51.65;98415.91;10388795;28;20068;-63
2022/02/21 12:38:15;;;;;;;7.53;1.83;;;;;;;6.67;52.60;98395.66;10388554;28;20095;-64
2022/02/21 12:43:17;;;;;;;5.10;1.70;;;;;;;6.54;53.64;98385.28;10388743;28;20152;-64
2022/02/21 12:48:18;;;;;;;6.47;2.70;;;;;;;6.34;54.33;98425.56;10388118;28;20049;-64
2022/02/21 12:53:20;;;;;;;7.85;2.45;;;;;;;5.76;58.43;98400.91;10388492;28;20041;-63
2022/02/21 12:58:22;;;;;;;6.38;1.40;;;;;;;5.35;60.44;98387.97;10386867;28;20442;-64
2022/02/21 13:03:23;;;;;;;5.05;1.50;;;;;;;5.50;60.14;98371.44;10385989;28;20051;-63
2022/02/21 13:08:39;;;;;;;4.25;1.52;;;;;;;5.65;60.22;98364.44;10386922;28;20152;-63
2022/02/21 13:13:44;;;;;;;5.45;1.88;;;;;;;5.54;59.78;98368.56;10385350;28;20072;-64
2022/02/21 13:18:47;;;;;;;6.70;1.67;;;;;;;5.55;59.95;98351.25;10387410;28;20061;-63
2022/02/21 13:23:49;;;;;;;5.85;1.50;;;;;;;5.61;60.19;98348.25;10387243;28;20049;-63
2022/02/21 13:28:51;;;;;;;4.32;1.40;;;;;;;5.50;61.11;98363.66;10386639;28;20041;-63
2022/02/21 13:34:13;;;;;;;7.15;1.52;;;;;;;5.25;62.88;98376.50;10384955;28;20509;-64
2022/02/21 13:39:21;;;;;;;5.55;1.58;;;;;;;5.02;65.08;98374.53;10385529;28;20048;-64
2022/02/21 13:44:24;;;;;;;7.40;1.65;;;;;;;5.06;63.72;98368.22;10385442;28;20137;-64
2022/02/21 13:49:36;;;;;;;5.15;1.58;;;;;;;5.06;63.91;98378.59;10385475;28;20355;-63
2022/02/21 13:54:41;;;;;;;3.30;1.08;;;;;;;5.00;64.54;98347.88;10386331;28;20049;-63
2022/02/21 13:59:45;;;;;;;4.30;1.50;;;;;;;5.13;64.35;98408.38;10384457;28;20137;-63
2022/02/21 14:04:47;;;;;;;4.47;1.27;;;;;;;5.33;64.18;98262.84;10385321;28;20053;-63
2022/02/21 14:10:11;;;;;;;4.43;1.27;;;;;;;5.34;64.32;98388.91;10385462;28;20405;-63
2022/02/21 14:15:13;;;;;;;7.47;1.58;;;;;;;5.40;63.54;98394.53;10383832;28;20130;-63
2022/02/21 14:20:14;;;;;;;3.08;1.30;;;;;;;5.31;63.93;98342.44;10386243;28;20042;-63
2022/02/21 14:25:29;;;;;;;2.67;1.02;;;;;;;5.28;63.04;98337.44;10385666;28;20061;-63
2022/02/21 14:30:31;;;;;;;4.72;1.98;;;;;;;5.48;62.91;98356.00;10382110;28;20049;-63
2022/02/21 14:35:37;;;;;;;4.57;1.75;;;;;;;5.42;61.93;98334.81;10385303;28;20049;-63
2022/02/21 14:40:40;;;;;;;3.95;1.42;;;;;;;5.75;61.67;98327.44;10384156;28;20049;-63
2022/02/21 14:45:43;;;;;;;2.60;1.10;;;;;;;5.77;61.51;98315.19;10383719;28;20053;-63
2022/02/21 14:50:45;;;;;;;2.20;1.10;;;;;;;5.59;62.13;98333.72;10384875;28;20045;-64
2022/02/21 14:55:47;;;;;;;5.93;1.95;;;;;;;5.52;63.04;98339.31;10382697;28;20104;-64
2022/02/21 15:00:49;;;;;;;4.38;1.20;;;;;;;5.26;64.15;98344.50;10382830;28;20128;-63
2022/02/21 15:05:51;;;;;;;2.08;0.90;;;;;;;5.21;65.04;98357.72;10384376;28;20394;-65
2022/02/21 15:10:53;;;;;;;3.15;1.20;;;;;;;5.25;64.68;98371.31;10383502;28;20409;-63
2022/02/21 15:15:54;;;;;;;4.95;1.77;;;;;;;5.03;65.82;98379.59;10388260;28;20605;-64
2022/02/21 15:20:56;;;;;;;2.30;1.10;;;;;;;5.20;65.58;98383.75;10392777;28;20479;-64
2022/02/21 15:26:00;;;;;;;3.65;1.50;;;;;;;5.16;66.00;98370.16;10391216;28;20413;-64
2022/02/21 15:31:02;;;;;;;2.05;1.00;;;;;;;5.27;65.63;98385.00;10391185;28;20417;-63
2022/02/21 15:36:05;;;;;;;3.40;1.00;;;;;;;5.20;66.15;98394.13;10390470;28;20779;-63
2022/02/21 15:41:11;;;;;;;1.52;0.88;;;;;;;5.31;65.56;98397.69;10391021;28;20041;-64
2022/02/21 15:46:14;;;;;;;2.13;1.00;;;;;;;5.18;66.41;98416.69;10386038;28;20552;-64
2022/02/21 15:51:15;;;;;;;2.30;1.10;;;;;;;5.14;65.94;98417.81;10388530;28;20041;-63
2022/02/21 15:56:17;;;;;;;3.85;1.38;;;;;;;5.23;66.44;98443.16;10388958;28;20490;-63
2022/02/21 16:01:19;;;;;;;1.77;1.00;;;;;;;5.26;66.35;98454.19;10387165;28;20049;-64
2022/02/21 16:06:22;;;;;;;4.35;1.20;;;;;;;5.21;66.72;98461.38;10387361;28;20064;-64
2022/02/21 16:11:23;;;;;;;1.63;0.98;;;;;;;5.04;67.59;98510.84;10385139;28;20096;-64
2022/02/21 16:16:25;;;;;;;3.60;1.20;;;;;;;5.15;67.20;98512.75;10388096;28;20053;-63
2022/02/21 16:21:27;;;;;;;3.40;1.70;;;;;;;5.02;67.18;98555.88;10387409;28;20046;-63
2022/02/21 16:26:29;;;;;;;3.88;1.67;;;;;;;4.90;67.39;98559.19;10386115;28;20167;-63
2022/02/21 16:31:31;;;;;;;4.38;1.65;;;;;;;4.86;67.36;98558.53;10388614;28;20079;-63
2022/02/21 16:36:33;;;;;;;4.88;1.50;;;;;;;4.84;67.58;98593.22;10387044;28;20045;-64
2022/02/21 16:41:35;;;;;;;7.03;1.73;;;;;;;4.98;67.27;98619.16;10385663;28;20563;-64
2022/02/21 16:46:38;;;;;;;8.55;2.03;;;;;;;4.94;67.61;98628.88;10387822;28;20081;-64
2022/02/21 16:51:39;;;;;;;11.35;2.30;;;;;;;5.18;66.95;98655.97;10386297;28;20509;-64
2022/02/21 16:56:41;;;;;;;6.97;2.20;;;;;;;5.33;66.06;98672.41;10387062;28;20045;-63
2022/02/21 17:01:46;;;;;;;10.27;2.30;;;;;;;5.41;65.33;98714.25;10386141;28;20049;-63
2022/02/21 17:06:49;;;;;;;13.65;2.67;;;;;;;5.54;63.96;98723.81;10384361;28;20139;-64
2022/02/21 17:11:51;;;;;;;12.55;2.92;;;;;;;5.68;63.26;98743.75;10385424;28;20515;-64
2022/02/21 17:16:52;;;;;;;10.25;2.85;;;;;;;5.73;62.85;98779.81;10373186;28;20079;-64
2022/02/21 17:21:54;;;;;;;12.50;2.70;;;;;;;5.78;61.80;98795.94;10382004;28;20049;-64
2022/02/21 17:26:56;;;;;;;11.20;2.45;;;;;;;5.82;61.81;98824.19;10382835;28;20155;-63
2022/02/21 17:31:58;;;;;;;17.05;3.33;;;;;;;5.74;61.87;98849.75;10377230;28;20061;-64
2022/02/21 17:37:00;;;;;;;13.35;2.83;;;;;;;5.74;61.33;98849.75;10383492;28;20144;-63
2022/02/21 17:42:02;;;;;;;11.38;3.28;;;;;;;5.75;61.31;98886.91;10385019;28;20409;-64
2022/02/21 17:47:05;;;;;;;11.05;3.17;;;;;;;5.78;61.29;98892.75;10382608;28;20148;-64
2022/02/21 17:52:09;;;;;;;14.52;3.45;;;;;;;5.89;61.30;98925.88;10385045;28;20049;-64
2022/02/21 17:57:10;;;;;;;14.32;2.92;;;;;;;5.57;62.79;98945.84;10384579;28;20053;-63
2022/02/21 18:02:12;;;;;;;15.43;3.78;;;;;;;5.43;63.03;98979.47;10382641;28;20144;-63
2022/02/21 18:07:14;;;;;;;16.52;3.53;;;;;;;5.32;64.16;98993.00;10383124;28;20320;-63
2022/02/21 18:12:15;;;;;;;17.00;5.40;;;;;;;5.18;64.37;99010.19;10384900;28;20385;-63
2022/02/21 18:17:18;;;;;;;13.25;4.22;;;;;;;5.23;64.65;99032.34;10383040;28;20053;-63
2022/02/21 18:22:20;;;;;;;11.70;3.08;;;;;;;5.37;64.29;99039.44;10382491;28;20052;-64
2022/02/21 18:27:22;;;;;;;17.38;2.97;;;;;;;5.38;64.08;99059.25;10384175;28;20241;-62
2022/02/21 18:32:24;;;;;;;16.73;2.60;;;;;;;5.39;63.44;99066.13;10382562;28;20057;-63
2022/02/21 18:37:25;;;;;;;10.77;2.70;;;;;;;5.44;63.05;99087.44;10382108;28;20136;-63
2022/02/21 18:42:27;;;;;;;16.00;2.80;;;;;;;5.27;62.66;99103.88;10381662;28;20770;-63
2022/02/21 18:47:29;;;;;;;12.95;2.50;;;;;;;5.32;61.76;99132.16;10383484;28;20060;-63
2022/02/21 18:52:31;;;;;;;10.05;2.85;;;;;;;5.27;61.88;99152.28;10391457;28;20594;-64
2022/02/21 18:57:53;;;;;;;9.25;2.33;;;;;;;5.30;61.95;99162.50;10390068;28;20061;-64
2022/02/21 19:02:55;;;;;;;9.38;2.35;;;;;;;5.15;61.69;99173.63;10391314;28;20049;-64
2022/02/21 19:07:57;;;;;;;11.90;2.40;;;;;;;5.10;61.60;99184.25;10389920;28;20053;-63
2022/02/21 19:12:59;;;;;;;13.02;2.53;;;;;;;5.21;60.71;99199.25;10390060;28;20496;-64
2022/02/21 19:18:01;;;;;;;11.68;2.25;;;;;;;5.26;60.92;99197.28;10390409;28;20566;-64
2022/02/21 19:23:04;;;;;;;12.45;2.20;;;;;;;5.10;61.04;99204.97;10390589;28;20049;-65
2022/02/21 19:28:06;;;;;;;10.95;2.20;;;;;;;5.10;61.20;99214.50;10388539;28;20045;-64
2022/02/21 19:33:08;;;;;;;14.82;2.42;;;;;;;5.01;61.76;99226.16;10389967;28;20063;-64
2022/02/21 19:38:10;;;;;;;8.30;2.13;;;;;;;5.17;61.52;99244.38;10387824;28;20075;-64
2022/02/21 19:43:13;;;;;;;13.50;3.00;;;;;;;5.25;61.22;99237.91;10389996;28;20049;-63
2022/02/21 19:48:16;;;;;;;13.40;3.85;;;;;;;5.08;61.74;99258.66;10389405;28;20357;-64
2022/02/21 19:53:18;;;;;;;12.45;3.80;;;;;;;5.16;61.90;99264.28;10389634;28;20533;-63
2022/02/21 19:58:19;;;;;;;10.13;2.95;;;;;;;5.24;61.79;99274.28;10387493;28;20490;-64
2022/02/21 20:03:21;;;;;;;10.82;3.58;;;;;;;5.24;61.94;99311.41;10388725;28;20132;-69
2022/02/21 20:08:23;;;;;;;12.32;2.80;;;;;;;5.26;62.55;99300.97;10380830;28;20057;-68
2022/02/21 20:13:25;;;;;;;11.13;2.45;;;;;;;5.31;61.94;99311.97;10387642;28;20135;-69
2022/02/21 20:18:27;;;;;;;13.15;2.85;;;;;;;5.31;61.67;99323.16;10388866;28;20154;-68
2022/02/21 20:23:29;;;;;;;13.95;2.95;;;;;;;5.10;62.13;99333.72;10388696;28;20045;-68
2022/02/21 20:28:30;;;;;;;15.35;3.15;;;;;;;5.03;61.99;99347.88;10386792;28;20042;-69
2022/02/21 20:33:32;;;;;;;10.90;2.53;;;;;;;4.87;62.52;99349.47;10387429;28;20270;-68
2022/02/21 20:38:34;;;;;;;14.38;2.25;;;;;;;4.89;62.38;99338.16;10386962;28;20049;-69
2022/02/21 20:43:36;;;;;;;13.40;2.40;;;;;;;4.89;62.14;99352.84;10386405;28;20046;-69
2022/02/21 20:48:38;;;;;;;11.63;2.70;;;;;;;5.02;61.88;99354.81;10386140;28;20045;-69
2022/02/21 20:53:41;;;;;;;8.32;2.00;;;;;;;5.05;61.94;99372.81;10377952;28;20530;-68
2022/02/21 20:58:42;;;;;;;16.83;2.92;;;;;;;4.92;62.38;99378.63;10382830;28;20449;-68
2022/02/21 21:03:44;;;;;;;17.08;2.65;;;;;;;5.01;62.32;99368.66;10387040;28;20153;-68
2022/02/21 21:08:48;;;;;;;13.25;2.58;;;;;;;4.94;62.59;99380.25;10385582;28;20136;-68
2022/02/21 21:13:50;;;;;;;9.80;2.72;;;;;;;5.03;62.69;99407.47;10375345;28;20130;-69
2022/02/21 21:18:51;;;;;;;13.18;2.75;;;;;;;5.16;62.44;99417.22;10379183;28;20132;-70
2022/02/21 21:23:54;;;;;;;12.85;2.50;;;;;;;5.33;62.55;99432.81;10384630;28;20424;-69
2022/02/21 21:28:55;;;;;;;12.70;2.50;;;;;;;5.43;62.91;99446.22;10384977;28;20216;-69
2022/02/21 21:33:57;;;;;;;15.45;3.00;;;;;;;5.39;62.95;99455.88;10381404;28;20061;-69
2022/02/21 21:38:59;;;;;;;15.38;2.40;;;;;;;5.38;62.50;99463.72;10383620;28;20581;-69
2022/02/21 21:44:01;;;;;;;10.23;2.67;;;;;;;5.49;62.45;99480.47;10383315;28;20140;-68
2022/02/21 21:49:05;;;;;;;12.93;2.72;;;;;;;5.55;62.16;99494.94;10382006;28;20057;-68
2022/02/21 21:54:07;;;;;;;16.58;3.15;;;;;;;5.67;61.96;99511.66;10385166;28;20050;-68
2022/02/21 21:59:09;;;;;;;11.48;2.78;;;;;;;5.57;62.78;99538.94;10382841;28;20041;-69
2022/02/21 22:04:11;;;;;;;17.75;3.30;;;;;;;5.67;62.99;99555.78;10384359;28;20119;-68
2022/02/21 22:09:12;;;;;;;17.02;2.97;;;;;;;5.50;64.21;99565.16;10384335;28;20091;-68
2022/02/21 22:14:14;;;;;;;15.07;3.25;;;;;;;5.26;65.52;99583.56;10379536;28;20324;-69
2022/02/21 22:19:16;;;;;;;13.02;2.75;;;;;;;5.11;65.56;99584.19;10385637;28;20072;-69
2022/02/21 22:24:17;;;;;;;17.67;3.42;;;;;;;4.95;65.60;99604.75;10384733;28;20068;-69
2022/02/21 22:29:19;;;;;;;19.35;3.13;;;;;;;4.93;65.32;99592.75;10385111;28;20136;-69
2022/02/21 22:34:21;;;;;;;20.23;3.58;;;;;;;4.88;65.35;99625.81;10381709;28;20057;-69
2022/02/21 22:39:24;;;;;;;21.50;3.95;;;;;;;4.96;64.82;99624.59;10381999;28;20108;-69
2022/02/21 22:44:26;;;;;;;19.00;3.72;;;;;;;4.96;64.28;99634.13;10383107;28;20381;-69
2022/02/21 22:49:28;;;;;;;20.13;3.80;;;;;;;5.04;63.47;99629.44;10383856;28;20375;-69
2022/02/21 22:54:30;;;;;;;22.30;4.00;;;;;;;4.98;63.02;99620.19;10382546;28;20048;-69
2022/02/21 22:59:32;;;;;;;21.17;3.70;;;;;;;4.95;63.18;99637.59;10384265;28;20053;-70
2022/02/21 23:04:46;;;;;;;21.15;3.53;;;;;;;5.04;62.68;99632.03;10384124;28;20441;-69
2022/02/21 23:09:48;;;;;;;21.50;3.60;;;;;;;5.15;62.75;99656.59;10384617;28;20451;-69
2022/02/21 23:14:50;;;;;;;21.55;4.10;;;;;;;5.31;61.96;99669.78;10384218;28;20049;-69
2022/02/21 23:19:52;;;;;;;21.45;4.00;;;;;;;5.28;61.65;99675.91;10385365;28;20505;-69
2022/02/21 23:24:54;;;;;;;20.88;3.47;;;;;;;5.30;61.99;99684.47;10383390;28;20424;-69
2022/02/21 23:29:55;;;;;;;20.13;3.72;;;;;;;5.28;61.81;99688.03;10381676;28;20600;-69
2022/02/21 23:34:58;;;;;;;18.67;3.78;;;;;;;5.29;61.28;99697.47;10378359;28;20041;-69